Black River Falls, WI (54615)

5:05 AM CDT on July 11, 2014 (GMT -0500)
RAWS BLACK RIVER FALLS WI US (MBFWW3) Elev 837 ft | 44.30 °N, 90.83 °W | Change Station

Current weather conditions updated 50 minutes ago

Clear
Clear
66 °F
Feels Like 66 °F
N
4
Wind Variable Wind from East
Gusts 9.0 mph

Today is forecast to be Cooler than yesterday. Partly cloudy, chance of a thunderstorm tonight.

Today
High -- | Low -- °F
--% Chance of Precip.
Yesterday
High -- | Low -- °F
Precip. -- in
5:30 AM 8:47 PM
Waxing Gibbous, 98% visible
Pressure 30.09 in
Visibility 10.0 miles
Clouds Clear
Dew Point 59 °F
Humidity 78%
Rainfall 0.00 in
Snow Depth Not available.
UV 0 out of 12
Pollen 3.80 out of 12
Air Quality Not available.
Flu Activity Sporadic
METAR KBCK 110955Z AUTO 18003KT 10SM CLR 15/15 A3009 RMK AO2 T01480147

More Conditions Fewer Conditions

Pressure 30.09 in
Visibility 10.0 miles
Clouds Clear
Dew Point 59 °F
Humidity 78%
Rainfall 0.00 in
Snow Depth Not available.
UV 0 out of 12
Pollen 3.80 out of 12
Air Quality Not available.
Flu Activity Sporadic
METAR KBCK 110955Z AUTO 18003KT 10SM CLR 15/15 A3009 RMK AO2 T01480147

More Conditions Fewer Conditions

10-Day Weather Forecast

Almanac

Astronomy

Jul. 11, 2014 Rise Set
Actual Time 5:30 AM CDT 8:47 PM CDT
Civil Twilight 4:54 AM CDT 9:22 PM CDT
Nautical Twilight 4:08 AM CDT 10:09 PM CDT
Astronomical Twilight 3:10 AM CDT 11:05 PM CDT
Moon 7:54 PM CDT 4:45 AM CDT
Length of Visible Light 16h 28m
Length of Day
15h 17m
Tomorrow will be 1m 23s shorter.
Waxing Gibbous, 98% of the Moon is Illuminated
Today
Waxing Gibbous
Jul 12
Full
Jul 18
Last Quarter
Jul 26
New
Aug 3
First Quarter

Today's Extremes

State Highs State Lows

Community

WunderPhotos

Upload Photos

1,732,401 photos uploaded!

WunderBlogs® & News

Nearby

Snow Depth

Station Depth Elevation
No new snow has been reported.

Earthquake Activity

City Distance Mag. Time & Date
No recent earthquake activity has been reported nearby.
Minimum magnitude displayed is 2.5.

Coastal Water Temperatures

Place Temperature
No Stations Reporting

Nearby Weather Stations

Station Location Temp. Dew Point Humidity Wind Precip. Elev Updated Type
RAWS BLACK RIVER FALLS WI, Black River Falls, WI 66 °F 59 °F 78% East  at  4 mph 0.00 in / hr 837 ft 4:15 AM CDT MADIS
WIDOT Black River Falls - I-94 @ Sandcut, Black River Falls, WI 61 °F 59 °F 93% North  at  0 mph 0.00 in / hr 1090 ft 4:10 AM CDT MADIS
MesoWest HUMBIR , Humbird, WI 62 °F - - North  at  - 0.00 in / hr 1092 ft 2:45 AM CDT MADIS
Black Oak, Mindoro, WI 69.6 °F 61 °F 75% ENE  at  4.5 mph 0.00 in / hr 781 ft 4:51 AM CDT Normal

Show More Stations Show Fewer Stations